createdAt,value
2019-03-24T00:02:03.027Z,48.87
2019-03-24T00:04:43.899Z,56.50
2019-03-24T00:07:24.754Z,62.50
2019-03-24T00:10:05.402Z,54.70
2019-03-24T00:12:46.387Z,50.30
2019-03-24T00:15:27.168Z,49.37
2019-03-24T00:18:08.417Z,56.97
2019-03-24T00:23:57.399Z,49.20
2019-03-24T00:26:38.806Z,49.00
2019-03-24T00:29:19.608Z,43.17
2019-03-24T00:32:02.156Z,46.28
2019-03-24T00:34:41.941Z,46.00
2019-03-24T00:40:38.522Z,50.70
2019-03-24T00:43:27.057Z,70.33
2019-03-24T00:46:15.130Z,66.93
2019-03-24T00:58:21.695Z,66.83
2019-03-24T01:04:18.222Z,60.17
2019-03-24T01:07:06.783Z,61.63
2019-03-24T01:16:00.741Z,53.40
2019-03-24T01:18:49.332Z,52.33
2019-03-24T01:24:25.194Z,46.63
2019-03-24T01:27:06.658Z,64.93
2019-03-24T01:29:48.084Z,44.40
2019-03-24T01:32:29.334Z,47.83
2019-03-24T01:35:10.658Z,52.33
2019-03-24T01:37:51.520Z,56.45
2019-03-24T01:40:32.714Z,57.53
2019-03-24T01:45:58.901Z,55.73
2019-03-24T01:48:39.047Z,47.23
2019-03-24T01:51:19.880Z,55.60
2019-03-24T01:54:01.210Z,62.00
2019-03-24T01:56:42.635Z,49.80
2019-03-24T01:59:23.977Z,54.97
2019-03-24T02:02:05.498Z,66.60
2019-03-24T02:04:46.997Z,52.87
2019-03-24T02:07:28.473Z,47.83
2019-03-24T02:10:09.965Z,52.50
2019-03-24T02:12:50.749Z,50.33
2019-03-24T02:21:46.070Z,49.43
2019-03-24T02:24:27.247Z,46.30
2019-03-24T02:27:27.458Z,47.50
2019-03-24T02:30:09.145Z,52.27
2019-03-24T02:32:50.053Z,54.20
2019-03-24T02:35:31.586Z,53.30
2019-03-24T02:38:12.642Z,57.90
2019-03-24T02:40:53.189Z,61.40
2019-03-24T02:43:34.508Z,58.37
2019-03-24T02:46:24.037Z,52.10
2019-03-24T02:48:58.191Z,44.38
2019-03-24T02:51:39.621Z,53.23
2019-03-24T02:54:21.230Z,44.85
2019-03-24T02:57:01.821Z,47.90
2019-03-24T02:59:43.256Z,42.77
2019-03-24T03:02:24.855Z,61.80
2019-03-24T03:05:05.622Z,46.37
2019-03-24T03:07:46.702Z,44.70
2019-03-24T03:10:27.919Z,49.47
2019-03-24T03:13:08.915Z,52.87
2019-03-24T03:15:50.099Z,47.13
2019-03-24T03:18:32.779Z,47.97
2019-03-24T03:21:13.640Z,48.00
2019-03-24T03:23:53.609Z,48.67
2019-03-24T03:26:42.232Z,53.97
2019-03-24T03:38:26.810Z,47.87
2019-03-24T03:41:15.606Z,51.93
2019-03-24T03:44:04.744Z,49.50
2019-03-24T03:46:53.538Z,50.90
2019-03-24T03:49:43.869Z,51.90
2019-03-24T03:58:34.759Z,54.70
2019-03-24T04:01:23.295Z,61.53
2019-03-24T04:04:11.925Z,65.70
2019-03-24T04:09:54.364Z,46.73
2019-03-24T04:12:43.204Z,61.93
2019-03-24T04:15:31.878Z,58.40
2019-03-24T04:18:20.862Z,55.80
2019-03-24T04:21:09.612Z,49.90
2019-03-24T04:27:10.052Z,50.30
2019-03-24T04:29:50.989Z,55.00
2019-03-24T04:32:31.912Z,45.83
2019-03-24T04:35:13.806Z,49.40
2019-03-24T04:37:55.347Z,50.13
2019-03-24T04:40:36.884Z,54.33
2019-03-24T04:46:36.660Z,44.50
2019-03-24T04:49:17.738Z,43.83
2019-03-24T04:52:00.277Z,47.13
2019-03-24T04:54:41.980Z,49.67
2019-03-24T04:57:23.365Z,44.87
2019-03-24T05:00:04.204Z,37.63
2019-03-24T05:02:45.060Z,40.70
2019-03-24T05:05:26.198Z,43.73
2019-03-24T05:08:07.301Z,46.50
2019-03-24T05:10:48.439Z,43.63
2019-03-24T05:13:29.613Z,39.70
2019-03-24T05:16:10.843Z,43.10
2019-03-24T05:18:52.381Z,39.60
2019-03-24T05:21:33.779Z,46.53
2019-03-24T05:24:14.995Z,37.93
2019-03-24T05:30:04.871Z,44.77
2019-03-24T05:32:45.336Z,47.23
2019-03-24T05:35:26.518Z,42.07
2019-03-24T05:38:06.121Z,43.73
2019-03-24T05:40:54.647Z,48.30
2019-03-24T05:43:43.226Z,46.47
2019-03-24T05:49:25.785Z,41.87
2019-03-24T05:55:22.018Z,41.60
2019-03-24T06:04:12.582Z,44.27
2019-03-24T06:07:01.113Z,40.53
2019-03-24T06:15:38.446Z,43.70
2019-03-24T06:18:08.273Z,47.30
2019-03-24T06:20:50.011Z,39.07
2019-03-24T06:23:32.411Z,42.90
2019-03-24T06:26:13.240Z,40.47
2019-03-24T06:28:54.285Z,38.63
2019-03-24T06:31:35.129Z,40.77
2019-03-24T06:34:15.612Z,37.23
2019-03-24T06:36:57.104Z,41.98
2019-03-24T06:39:38.338Z,36.13
2019-03-24T06:42:19.688Z,42.03
2019-03-24T06:45:00.920Z,43.20
2019-03-24T06:47:42.293Z,36.20
2019-03-24T06:50:23.960Z,35.90
2019-03-24T06:53:04.585Z,34.93
2019-03-24T06:55:45.765Z,39.27
2019-03-24T06:58:27.404Z,37.67
2019-03-24T07:01:07.068Z,52.40
2019-03-24T07:03:48.659Z,41.58
2019-03-24T07:06:30.370Z,33.87
2019-03-24T07:09:11.464Z,40.13
2019-03-24T07:11:52.890Z,50.63
2019-03-24T07:14:33.463Z,37.87
2019-03-24T07:17:14.314Z,47.37
2019-03-24T07:19:55.582Z,36.53
2019-03-24T07:22:36.936Z,43.33
2019-03-24T07:25:07.400Z,40.37
2019-03-24T07:27:56.010Z,41.23
2019-03-24T07:33:31.801Z,36.90
2019-03-24T07:39:31.399Z,34.30
2019-03-24T07:42:12.539Z,37.90
2019-03-24T07:44:53.973Z,39.00
2019-03-24T07:47:34.511Z,48.97
2019-03-24T07:50:15.425Z,40.17
2019-03-24T07:52:56.263Z,44.33
2019-03-24T07:55:37.521Z,40.40
2019-03-24T07:58:18.583Z,39.33
2019-03-24T08:01:00.318Z,37.25
2019-03-24T08:03:41.512Z,42.40
2019-03-24T08:06:22.517Z,33.93
2019-03-24T08:09:04.826Z,33.67
2019-03-24T08:11:45.538Z,33.93
2019-03-24T08:17:32.397Z,38.33
2019-03-24T08:20:12.905Z,34.30
2019-03-24T08:22:54.389Z,32.60
2019-03-24T08:25:35.169Z,39.17
2019-03-24T08:28:16.210Z,41.07
2019-03-24T08:30:57.620Z,43.33
2019-03-24T08:33:39.325Z,37.93
2019-03-24T08:36:19.946Z,37.70
2019-03-24T08:38:59.712Z,47.00
2019-03-24T08:44:42.276Z,34.80
2019-03-24T08:47:31.156Z,37.80
2019-03-24T08:50:19.707Z,37.83
2019-03-24T08:53:08.297Z,35.30
2019-03-24T08:55:56.910Z,34.00
2019-03-24T09:01:40.205Z,35.17
2019-03-24T09:07:28.576Z,41.13
2019-03-24T09:10:10.203Z,31.17
2019-03-24T09:12:51.360Z,24.10
2019-03-24T09:15:31.814Z,20.27
2019-03-24T09:18:13.113Z,21.67
2019-03-24T09:20:54.667Z,24.70
2019-03-24T09:23:35.421Z,19.00
2019-03-24T09:26:16.000Z,20.20
2019-03-24T09:29:16.780Z,18.25
2019-03-24T09:31:58.526Z,20.80
2019-03-24T09:34:40.637Z,18.37
2019-03-24T09:37:22.230Z,19.25
2019-03-24T09:43:08.982Z,17.43
2019-03-24T09:45:50.154Z,20.57
2019-03-24T09:48:30.909Z,19.30
2019-03-24T09:51:12.141Z,20.83
2019-03-24T09:53:53.783Z,21.37
2019-03-24T09:56:35.089Z,20.57
2019-03-24T09:59:16.095Z,16.73
2019-03-24T10:01:57.143Z,15.23
2019-03-24T10:04:37.783Z,22.63
2019-03-24T10:07:18.327Z,17.87
2019-03-24T10:15:55.505Z,21.00
2019-03-24T10:21:52.204Z,21.53
2019-03-24T10:27:48.500Z,23.53
2019-03-24T10:33:45.034Z,20.80
2019-03-24T10:36:33.702Z,18.82
2019-03-24T10:45:24.522Z,19.73
2019-03-24T10:48:13.331Z,20.02
2019-03-24T10:53:56.582Z,20.67
2019-03-24T10:56:45.148Z,25.30
2019-03-24T11:05:22.431Z,26.53
2019-03-24T11:11:47.028Z,30.37
2019-03-24T11:14:28.286Z,36.63
2019-03-24T11:17:10.041Z,34.00
2019-03-24T11:19:51.175Z,35.27
2019-03-24T11:22:33.038Z,42.43
2019-03-24T11:25:14.414Z,45.47
2019-03-24T11:27:55.620Z,38.40
2019-03-24T11:30:36.880Z,30.73
2019-03-24T11:33:18.245Z,39.23
2019-03-24T11:35:59.336Z,33.80
2019-03-24T11:38:40.810Z,34.53
2019-03-24T11:41:22.082Z,33.83
2019-03-24T11:44:03.203Z,33.53
2019-03-24T11:46:44.197Z,30.43
2019-03-24T11:49:25.867Z,30.57
2019-03-24T11:52:06.483Z,35.25
2019-03-24T11:54:47.989Z,36.77
2019-03-24T11:57:29.078Z,37.83
2019-03-24T12:00:10.764Z,36.70
2019-03-24T12:02:51.911Z,35.83
2019-03-24T12:05:33.452Z,38.93
2019-03-24T12:08:15.158Z,37.47
2019-03-24T12:10:56.479Z,44.37
2019-03-24T12:13:37.503Z,51.43
2019-03-24T12:16:18.849Z,39.57
2019-03-24T12:19:00.301Z,42.07
2019-03-24T12:21:40.950Z,50.73
2019-03-24T12:24:21.830Z,46.33
2019-03-24T12:27:02.766Z,47.57
2019-03-24T12:29:43.792Z,54.13
2019-03-24T12:32:25.187Z,51.27
2019-03-24T12:35:06.233Z,52.13
2019-03-24T12:37:47.551Z,52.73
2019-03-24T12:40:28.903Z,49.70
2019-03-24T12:43:18.850Z,48.63
2019-03-24T12:45:52.445Z,52.67
2019-03-24T12:48:33.921Z,52.50
2019-03-24T12:51:14.685Z,53.97
2019-03-24T12:53:56.166Z,48.73
2019-03-24T12:56:37.602Z,50.70
2019-03-24T12:59:18.203Z,48.63
2019-03-24T13:01:58.998Z,51.27
2019-03-24T13:04:39.607Z,48.17
2019-03-24T13:10:29.940Z,52.60
2019-03-24T13:13:10.498Z,51.80
2019-03-24T13:15:52.228Z,47.57
2019-03-24T13:18:34.098Z,45.85
2019-03-24T13:21:14.104Z,45.60
2019-03-24T13:24:02.836Z,43.80
2019-03-24T13:29:59.388Z,54.60
2019-03-24T13:38:37.618Z,49.00
2019-03-24T13:41:18.634Z,46.30
2019-03-24T13:43:59.633Z,49.03
2019-03-24T13:46:40.729Z,49.73
2019-03-24T13:49:21.479Z,51.33
2019-03-24T13:52:02.637Z,48.40
2019-03-24T13:54:44.153Z,46.00
2019-03-24T14:00:32.983Z,43.10
2019-03-24T14:03:14.093Z,50.47
2019-03-24T14:05:55.641Z,49.50
2019-03-24T14:08:25.390Z,50.00
2019-03-24T14:14:08.620Z,46.83
2019-03-24T14:16:57.545Z,46.65
2019-03-24T14:23:13.390Z,45.60
2019-03-24T14:32:01.821Z,52.90
2019-03-24T14:38:18.396Z,45.37
2019-03-24T14:41:07.326Z,54.63
2019-03-24T14:46:49.722Z,56.33
2019-03-24T14:49:31.107Z,52.67
2019-03-24T14:52:12.325Z,53.33
2019-03-24T14:54:54.132Z,63.07
2019-03-24T14:57:35.619Z,57.27
2019-03-24T15:03:36.347Z,54.73
2019-03-24T15:06:17.782Z,55.43
2019-03-24T15:08:58.633Z,61.23
2019-03-24T15:11:38.356Z,63.50
2019-03-24T15:14:27.254Z,65.90
2019-03-24T15:23:04.553Z,56.87
2019-03-24T15:25:53.102Z,65.83
2019-03-24T15:28:41.748Z,62.97
2019-03-24T15:31:30.639Z,62.13
2019-03-24T15:37:14.332Z,68.10
2019-03-24T15:40:01.893Z,62.20
2019-03-24T15:42:50.452Z,66.70
2019-03-24T15:45:39.092Z,59.00
2019-03-24T15:48:27.886Z,64.40
2019-03-24T15:51:17.392Z,64.50
2019-03-24T15:57:00.765Z,62.20
2019-03-24T15:59:50.432Z,60.27
2019-03-24T16:02:39.617Z,69.17
2019-03-24T16:11:30.534Z,50.60
2019-03-24T16:17:14.076Z,56.37
2019-03-24T16:20:02.645Z,57.97
2019-03-24T16:22:51.468Z,56.37
2019-03-24T16:31:41.935Z,64.90
2019-03-24T16:34:30.502Z,58.40
2019-03-24T16:37:11.298Z,57.67
2019-03-24T16:39:51.913Z,57.53
2019-03-24T16:42:33.430Z,51.87
2019-03-24T16:45:14.846Z,54.90
2019-03-24T16:47:56.018Z,64.40
2019-03-24T16:50:37.095Z,70.07
2019-03-24T16:53:18.383Z,55.03
2019-03-24T16:55:59.647Z,67.73
2019-03-24T16:58:39.706Z,59.57
2019-03-24T17:07:30.837Z,54.80
2019-03-24T17:13:08.433Z,61.33
2019-03-24T17:15:57.259Z,65.73
2019-03-24T17:18:46.090Z,52.40
2019-03-24T17:27:22.509Z,58.87
2019-03-24T17:30:11.338Z,74.93
2019-03-24T17:36:08.534Z,70.03
2019-03-24T17:41:10.988Z,72.70
2019-03-24T17:44:02.628Z,56.27
2019-03-24T17:46:35.254Z,60.17
2019-03-24T17:49:16.504Z,56.30
2019-03-24T17:52:01.002Z,59.10
2019-03-24T17:54:39.535Z,52.43
2019-03-24T17:57:20.761Z,49.35
2019-03-24T18:00:01.556Z,58.90
2019-03-24T18:02:42.992Z,55.47
2019-03-24T18:05:23.774Z,56.17
2019-03-24T18:08:05.043Z,54.13
2019-03-24T18:10:46.231Z,57.23
2019-03-24T18:13:27.451Z,57.83
2019-03-24T18:16:08.629Z,62.55
2019-03-24T18:18:48.347Z,58.10
2019-03-24T18:21:36.992Z,56.03
2019-03-24T18:30:27.631Z,67.30
2019-03-24T18:36:10.811Z,52.50
2019-03-24T18:38:59.325Z,66.17
2019-03-24T18:41:48.157Z,60.87
2019-03-24T18:47:44.413Z,54.23
2019-03-24T18:50:33.001Z,58.33
2019-03-24T18:53:21.551Z,58.00
2019-03-24T18:56:10.228Z,60.73
2019-03-24T18:58:58.873Z,58.10
2019-03-24T19:01:40.147Z,60.43
2019-03-24T19:04:21.311Z,62.23
2019-03-24T19:07:02.266Z,61.70
2019-03-24T19:09:41.929Z,61.23
2019-03-24T19:15:24.448Z,65.57
2019-03-24T19:18:13.120Z,64.47
2019-03-24T19:23:56.151Z,71.60
2019-03-24T19:29:39.083Z,54.30
2019-03-24T19:35:27.608Z,64.13
2019-03-24T19:38:09.055Z,53.93
2019-03-24T19:40:49.902Z,65.00
2019-03-24T19:43:30.861Z,61.50
2019-03-24T19:46:11.754Z,69.63
2019-03-24T19:48:53.406Z,67.53
2019-03-24T19:51:34.322Z,68.53
2019-03-24T19:54:15.711Z,70.55
2019-03-24T19:56:57.096Z,68.03
2019-03-24T19:59:38.528Z,72.37
2019-03-24T20:02:19.569Z,72.33
2019-03-24T20:04:49.529Z,68.37
2019-03-24T20:07:47.586Z,68.02
2019-03-24T20:19:09.629Z,70.37
2019-03-24T20:24:52.628Z,70.43
2019-03-24T20:27:41.198Z,73.20
2019-03-24T20:30:29.734Z,69.30
2019-03-24T20:33:18.425Z,64.17
2019-03-24T21:05:11.047Z,88.10
2019-03-24T21:07:59.239Z,82.67
2019-03-24T21:10:47.806Z,89.57
2019-03-24T21:19:37.923Z,84.97
2019-03-24T21:22:26.446Z,95.13
2019-03-24T21:25:14.663Z,79.47
2019-03-24T21:30:57.861Z,82.70
2019-03-24T21:33:46.401Z,79.22
2019-03-24T21:39:42.626Z,81.60
2019-03-24T21:42:31.200Z,78.10
2019-03-24T21:51:13.963Z,81.30
2019-03-24T21:53:55.351Z,76.33
2019-03-24T21:56:36.372Z,80.70
2019-03-24T21:59:17.687Z,84.33
2019-03-24T22:01:58.455Z,78.27
2019-03-24T22:04:39.051Z,80.53
2019-03-24T22:07:20.003Z,77.20
2019-03-24T22:10:00.637Z,80.40
2019-03-24T22:12:41.819Z,90.73
2019-03-24T22:18:31.325Z,87.10
2019-03-24T22:21:12.493Z,77.50
2019-03-24T22:23:53.528Z,81.70
2019-03-24T22:26:34.735Z,84.50
2019-03-24T22:29:15.816Z,93.17
2019-03-24T22:31:55.532Z,84.37
2019-03-24T22:34:44.068Z,85.43
2019-03-24T22:37:32.611Z,84.60
2019-03-24T22:40:21.163Z,80.07
2019-03-24T22:49:11.842Z,81.67
2019-03-24T22:52:07.103Z,83.27
2019-03-24T22:54:50.623Z,80.00
2019-03-24T22:57:39.205Z,86.10
2019-03-24T23:00:46.849Z,83.30
2019-03-24T23:03:35.375Z,79.32
2019-03-24T23:09:10.862Z,73.67
2019-03-24T23:11:52.014Z,80.27
2019-03-24T23:14:32.827Z,74.70
2019-03-24T23:17:13.993Z,81.17
2019-03-24T23:19:55.233Z,92.17
2019-03-24T23:22:36.729Z,74.73
2019-03-24T23:25:17.631Z,84.83
2019-03-24T23:31:07.420Z,77.43
2019-03-24T23:33:48.709Z,72.33
2019-03-24T23:36:29.362Z,77.23
2019-03-24T23:39:10.423Z,81.73
2019-03-24T23:41:51.121Z,81.30
2019-03-24T23:44:32.388Z,84.50
2019-03-24T23:47:14.144Z,78.00
2019-03-24T23:53:02.427Z,79.47
2019-03-24T23:55:43.782Z,81.70
2019-03-24T23:58:24.509Z,70.30
